sensor_id;sensor_type;location;lat;lon;timestamp;temperature;humidity
51825;DHT22;37879;52.986;6.282;2024-02-26T00:01:36;3.10;99.90
51825;DHT22;37879;52.986;6.282;2024-02-26T00:04:02;3.10;99.90
51825;DHT22;37879;52.986;6.282;2024-02-26T00:06:29;3.10;99.90
51825;DHT22;37879;52.986;6.282;2024-02-26T00:08:55;3.10;99.90
51825;DHT22;37879;52.986;6.282;2024-02-26T00:11:21;3.20;99.90
51825;DHT22;37879;52.986;6.282;2024-02-26T00:13:46;3.20;99.90
51825;DHT22;37879;52.986;6.282;2024-02-26T00:16:12;3.20;99.90
51825;DHT22;37879;52.986;6.282;2024-02-26T00:18:38;3.20;99.90
51825;DHT22;37879;52.986;6.282;2024-02-26T00:21:04;3.20;99.90
51825;DHT22;37879;52.986;6.282;2024-02-26T00:23:30;3.20;99.90
51825;DHT22;37879;52.986;6.282;2024-02-26T00:25:55;3.10;99.90
51825;DHT22;37879;52.986;6.282;2024-02-26T00:28:21;3.10;99.90
51825;DHT22;37879;52.986;6.282;2024-02-26T00:30:47;3.10;99.90
51825;DHT22;37879;52.986;6.282;2024-02-26T00:33:16;3.40;99.90
51825;DHT22;37879;52.986;6.282;2024-02-26T00:35:42;3.10;99.90
51825;DHT22;37879;52.986;6.282;2024-02-26T00:38:08;3.20;99.90
51825;DHT22;37879;52.986;6.282;2024-02-26T00:40:34;3.30;99.90
51825;DHT22;37879;52.986;6.282;2024-02-26T00:42:59;3.20;99.90
51825;DHT22;37879;52.986;6.282;2024-02-26T00:45:25;3.20;99.90
51825;DHT22;37879;52.986;6.282;2024-02-26T00:47:51;3.20;99.90
51825;DHT22;37879;52.986;6.282;2024-02-26T00:50:17;3.20;99.90
51825;DHT22;37879;52.986;6.282;2024-02-26T00:52:42;3.20;99.90
51825;DHT22;37879;52.986;6.282;2024-02-26T00:55:08;3.20;99.90
51825;DHT22;37879;52.986;6.282;2024-02-26T00:57:34;3.20;99.90
51825;DHT22;37879;52.986;6.282;2024-02-26T01:00:00;3.20;99.90
51825;DHT22;37879;52.986;6.282;2024-02-26T01:02:26;3.20;99.90
51825;DHT22;37879;52.986;6.282;2024-02-26T01:04:52;3.20;99.90
51825;DHT22;37879;52.986;6.282;2024-02-26T01:07:18;3.10;99.90
51825;DHT22;37879;52.986;6.282;2024-02-26T01:09:44;3.10;99.90
51825;DHT22;37879;52.986;6.282;2024-02-26T01:12:10;3.10;99.90
51825;DHT22;37879;52.986;6.282;2024-02-26T01:14:36;3.10;99.90
51825;DHT22;37879;52.986;6.282;2024-02-26T01:17:01;4.00;99.90
51825;DHT22;37879;52.986;6.282;2024-02-26T01:19:27;3.10;99.90
51825;DHT22;37879;52.986;6.282;2024-02-26T01:21:53;3.30;99.90
51825;DHT22;37879;52.986;6.282;2024-02-26T01:24:19;3.10;99.90
51825;DHT22;37879;52.986;6.282;2024-02-26T01:26:44;3.10;99.90
51825;DHT22;37879;52.986;6.282;2024-02-26T01:29:10;3.60;99.90
51825;DHT22;37879;52.986;6.282;2024-02-26T01:31:36;3.10;99.90
51825;DHT22;37879;52.986;6.282;2024-02-26T01:34:01;3.70;99.90
51825;DHT22;37879;52.986;6.282;2024-02-26T01:36:27;3.10;99.90
51825;DHT22;37879;52.986;6.282;2024-02-26T01:38:53;3.20;99.90
51825;DHT22;37879;52.986;6.282;2024-02-26T01:41:19;3.20;99.90
51825;DHT22;37879;52.986;6.282;2024-02-26T01:43:44;3.50;99.90
51825;DHT22;37879;52.986;6.282;2024-02-26T01:46:14;3.20;99.90
51825;DHT22;37879;52.986;6.282;2024-02-26T01:48:43;3.20;99.90
51825;DHT22;37879;52.986;6.282;2024-02-26T01:51:10;3.40;99.90
51825;DHT22;37879;52.986;6.282;2024-02-26T01:53:38;3.30;99.90
51825;DHT22;37879;52.986;6.282;2024-02-26T01:56:04;3.30;99.90
51825;DHT22;37879;52.986;6.282;2024-02-26T01:58:30;3.30;99.90
51825;DHT22;37879;52.986;6.282;2024-02-26T02:00:57;3.40;99.90
51825;DHT22;37879;52.986;6.282;2024-02-26T02:03:23;3.40;99.90
51825;DHT22;37879;52.986;6.282;2024-02-26T02:05:49;3.40;99.90
51825;DHT22;37879;52.986;6.282;2024-02-26T02:08:15;3.40;99.90
51825;DHT22;37879;52.986;6.282;2024-02-26T02:10:42;3.40;99.90
51825;DHT22;37879;52.986;6.282;2024-02-26T02:13:08;3.30;99.90
51825;DHT22;37879;52.986;6.282;2024-02-26T02:15:34;3.40;99.90
51825;DHT22;37879;52.986;6.282;2024-02-26T02:18:00;3.40;99.90
51825;DHT22;37879;52.986;6.282;2024-02-26T02:20:35;3.40;99.90
51825;DHT22;37879;52.986;6.282;2024-02-26T02:23:02;3.40;99.90
51825;DHT22;37879;52.986;6.282;2024-02-26T02:25:28;3.30;99.90
51825;DHT22;37879;52.986;6.282;2024-02-26T02:27:55;3.40;99.90
51825;DHT22;37879;52.986;6.282;2024-02-26T02:30:25;3.40;99.90
51825;DHT22;37879;52.986;6.282;2024-02-26T02:32:51;3.60;99.90
51825;DHT22;37879;52.986;6.282;2024-02-26T02:35:17;3.40;99.90
51825;DHT22;37879;52.986;6.282;2024-02-26T02:37:42;3.90;99.90
51825;DHT22;37879;52.986;6.282;2024-02-26T02:40:08;3.40;99.90
51825;DHT22;37879;52.986;6.282;2024-02-26T02:42:34;3.40;99.90
51825;DHT22;37879;52.986;6.282;2024-02-26T02:44:59;3.40;99.90
51825;DHT22;37879;52.986;6.282;2024-02-26T02:47:25;3.40;99.90
51825;DHT22;37879;52.986;6.282;2024-02-26T02:49:51;3.40;99.90
51825;DHT22;37879;52.986;6.282;2024-02-26T02:52:17;3.40;99.90
51825;DHT22;37879;52.986;6.282;2024-02-26T02:54:42;3.40;99.90
51825;DHT22;37879;52.986;6.282;2024-02-26T02:57:08;3.40;99.90
51825;DHT22;37879;52.986;6.282;2024-02-26T02:59:36;3.70;99.90
51825;DHT22;37879;52.986;6.282;2024-02-26T03:02:01;3.40;99.90
51825;DHT22;37879;52.986;6.282;2024-02-26T03:04:27;3.40;99.90
51825;DHT22;37879;52.986;6.282;2024-02-26T03:06:54;3.60;99.90
51825;DHT22;37879;52.986;6.282;2024-02-26T03:09:20;3.30;99.90
51825;DHT22;37879;52.986;6.282;2024-02-26T03:11:46;3.30;99.90
51825;DHT22;37879;52.986;6.282;2024-02-26T03:14:12;3.20;99.90
51825;DHT22;37879;52.986;6.282;2024-02-26T03:16:37;3.20;99.90
51825;DHT22;37879;52.986;6.282;2024-02-26T03:19:03;3.20;99.90
51825;DHT22;37879;52.986;6.282;2024-02-26T03:21:29;3.20;99.90
51825;DHT22;37879;52.986;6.282;2024-02-26T03:23:55;3.20;99.90
51825;DHT22;37879;52.986;6.282;2024-02-26T03:26:21;3.60;99.90
51825;DHT22;37879;52.986;6.282;2024-02-26T03:28:47;3.20;99.90
51825;DHT22;37879;52.986;6.282;2024-02-26T03:31:13;3.10;99.90
51825;DHT22;37879;52.986;6.282;2024-02-26T03:33:39;3.10;99.90
51825;DHT22;37879;52.986;6.282;2024-02-26T03:36:05;3.10;99.90
51825;DHT22;37879;52.986;6.282;2024-02-26T03:38:32;3.10;99.90
51825;DHT22;37879;52.986;6.282;2024-02-26T03:40:58;3.10;99.90
51825;DHT22;37879;52.986;6.282;2024-02-26T03:43:24;3.10;99.90
51825;DHT22;37879;52.986;6.282;2024-02-26T03:45:50;3.10;99.90
51825;DHT22;37879;52.986;6.282;2024-02-26T03:48:15;3.10;99.90
51825;DHT22;37879;52.986;6.282;2024-02-26T03:50:41;3.10;99.90
51825;DHT22;37879;52.986;6.282;2024-02-26T03:53:07;3.10;99.90
51825;DHT22;37879;52.986;6.282;2024-02-26T03:55:35;3.10;99.90
51825;DHT22;37879;52.986;6.282;2024-02-26T03:58:00;3.10;99.90
51825;DHT22;37879;52.986;6.282;2024-02-26T04:00:26;4.00;99.90
51825;DHT22;37879;52.986;6.282;2024-02-26T04:02:54;3.10;99.90
51825;DHT22;37879;52.986;6.282;2024-02-26T04:05:20;3.10;99.90
51825;DHT22;37879;52.986;6.282;2024-02-26T04:07:45;3.10;99.90
51825;DHT22;37879;52.986;6.282;2024-02-26T04:10:11;3.40;99.90
51825;DHT22;37879;52.986;6.282;2024-02-26T04:12:41;3.20;99.90
51825;DHT22;37879;52.986;6.282;2024-02-26T04:15:08;3.20;99.90
51825;DHT22;37879;52.986;6.282;2024-02-26T04:17:34;3.20;99.90
51825;DHT22;37879;52.986;6.282;2024-02-26T04:20:00;3.10;99.90
51825;DHT22;37879;52.986;6.282;2024-02-26T04:22:26;3.10;99.90
51825;DHT22;37879;52.986;6.282;2024-02-26T04:24:52;3.10;99.90
51825;DHT22;37879;52.986;6.282;2024-02-26T04:27:17;3.50;99.90
51825;DHT22;37879;52.986;6.282;2024-02-26T04:29:43;3.40;99.90
51825;DHT22;37879;52.986;6.282;2024-02-26T04:32:09;3.10;99.90
51825;DHT22;37879;52.986;6.282;2024-02-26T04:34:34;3.10;99.90
51825;DHT22;37879;52.986;6.282;2024-02-26T04:37:00;3.10;99.90
51825;DHT22;37879;52.986;6.282;2024-02-26T04:39:26;3.10;99.90
51825;DHT22;37879;52.986;6.282;2024-02-26T04:41:51;3.10;99.90
51825;DHT22;37879;52.986;6.282;2024-02-26T04:44:17;3.60;99.90
51825;DHT22;37879;52.986;6.282;2024-02-26T04:46:43;4.00;99.90
51825;DHT22;37879;52.986;6.282;2024-02-26T04:49:09;4.20;99.90
51825;DHT22;37879;52.986;6.282;2024-02-26T04:51:35;3.10;99.90
51825;DHT22;37879;52.986;6.282;2024-02-26T04:54:00;3.10;99.90
51825;DHT22;37879;52.986;6.282;2024-02-26T04:56:26;3.10;99.90
51825;DHT22;37879;52.986;6.282;2024-02-26T04:58:52;3.10;99.90
51825;DHT22;37879;52.986;6.282;2024-02-26T05:01:18;3.80;99.90
51825;DHT22;37879;52.986;6.282;2024-02-26T05:03:44;3.50;99.90
51825;DHT22;37879;52.986;6.282;2024-02-26T05:06:10;3.10;99.90
51825;DHT22;37879;52.986;6.282;2024-02-26T05:08:35;3.20;99.90
51825;DHT22;37879;52.986;6.282;2024-02-26T05:11:03;3.20;99.90
51825;DHT22;37879;52.986;6.282;2024-02-26T05:13:29;3.20;99.90
51825;DHT22;37879;52.986;6.282;2024-02-26T05:15:55;3.20;99.90
51825;DHT22;37879;52.986;6.282;2024-02-26T05:18:21;3.20;99.90
51825;DHT22;37879;52.986;6.282;2024-02-26T05:20:47;3.30;99.90
51825;DHT22;37879;52.986;6.282;2024-02-26T05:23:13;3.30;99.90
51825;DHT22;37879;52.986;6.282;2024-02-26T05:25:38;3.90;99.90
51825;DHT22;37879;52.986;6.282;2024-02-26T05:28:04;3.40;99.90
51825;DHT22;37879;52.986;6.282;2024-02-26T05:32:56;3.40;99.90
51825;DHT22;37879;52.986;6.282;2024-02-26T05:35:22;3.40;99.90
51825;DHT22;37879;52.986;6.282;2024-02-26T05:37:48;3.40;99.90
51825;DHT22;37879;52.986;6.282;2024-02-26T05:40:14;3.40;99.90
51825;DHT22;37879;52.986;6.282;2024-02-26T05:42:39;3.40;99.90
51825;DHT22;37879;52.986;6.282;2024-02-26T05:45:05;3.40;99.90
51825;DHT22;37879;52.986;6.282;2024-02-26T05:47:33;3.40;99.90
51825;DHT22;37879;52.986;6.282;2024-02-26T05:49:59;3.40;99.90
51825;DHT22;37879;52.986;6.282;2024-02-26T05:52:26;3.50;99.90
51825;DHT22;37879;52.986;6.282;2024-02-26T05:54:53;3.80;99.90
51825;DHT22;37879;52.986;6.282;2024-02-26T05:57:19;3.40;99.90
51825;DHT22;37879;52.986;6.282;2024-02-26T05:59:44;3.40;99.90
51825;DHT22;37879;52.986;6.282;2024-02-26T06:02:10;3.50;99.90
51825;DHT22;37879;52.986;6.282;2024-02-26T06:04:36;3.40;99.90
51825;DHT22;37879;52.986;6.282;2024-02-26T06:07:02;3.50;99.90
51825;DHT22;37879;52.986;6.282;2024-02-26T06:09:28;3.40;99.90
51825;DHT22;37879;52.986;6.282;2024-02-26T06:11:53;3.40;99.90
51825;DHT22;37879;52.986;6.282;2024-02-26T06:14:20;3.60;99.90
51825;DHT22;37879;52.986;6.282;2024-02-26T06:16:46;3.40;99.90
51825;DHT22;37879;52.986;6.282;2024-02-26T06:19:12;3.40;99.90
51825;DHT22;37879;52.986;6.282;2024-02-26T06:21:37;3.60;99.90
51825;DHT22;37879;52.986;6.282;2024-02-26T06:24:03;3.50;99.90
51825;DHT22;37879;52.986;6.282;2024-02-26T06:26:29;3.50;99.90
51825;DHT22;37879;52.986;6.282;2024-02-26T06:28:55;3.40;99.90
51825;DHT22;37879;52.986;6.282;2024-02-26T06:31:22;3.50;99.90
51825;DHT22;37879;52.986;6.282;2024-02-26T06:33:49;3.50;99.90
51825;DHT22;37879;52.986;6.282;2024-02-26T06:36:16;3.80;99.90
51825;DHT22;37879;52.986;6.282;2024-02-26T06:38:41;3.50;99.90
51825;DHT22;37879;52.986;6.282;2024-02-26T06:41:07;4.20;99.90
51825;DHT22;37879;52.986;6.282;2024-02-26T06:43:33;3.50;99.90
51825;DHT22;37879;52.986;6.282;2024-02-26T06:45:58;3.50;99.90
51825;DHT22;37879;52.986;6.282;2024-02-26T06:48:25;3.50;99.90
51825;DHT22;37879;52.986;6.282;2024-02-26T06:50:50;3.50;99.90
51825;DHT22;37879;52.986;6.282;2024-02-26T06:53:16;3.50;99.90
51825;DHT22;37879;52.986;6.282;2024-02-26T06:55:42;3.50;99.90
51825;DHT22;37879;52.986;6.282;2024-02-26T06:58:08;3.60;99.90
51825;DHT22;37879;52.986;6.282;2024-02-26T07:00:34;3.50;99.90
51825;DHT22;37879;52.986;6.282;2024-02-26T07:03:00;3.60;99.90
51825;DHT22;37879;52.986;6.282;2024-02-26T07:05:27;3.60;99.90
51825;DHT22;37879;52.986;6.282;2024-02-26T07:07:53;3.60;99.90
51825;DHT22;37879;52.986;6.282;2024-02-26T07:10:18;3.60;99.90
51825;DHT22;37879;52.986;6.282;2024-02-26T07:12:44;3.60;99.90
51825;DHT22;37879;52.986;6.282;2024-02-26T07:15:10;3.60;99.90
51825;DHT22;37879;52.986;6.282;2024-02-26T07:17:36;3.60;99.90
51825;DHT22;37879;52.986;6.282;2024-02-26T07:20:02;3.60;99.90
51825;DHT22;37879;52.986;6.282;2024-02-26T07:22:31;3.70;99.90
51825;DHT22;37879;52.986;6.282;2024-02-26T07:24:57;3.70;99.90
51825;DHT22;37879;52.986;6.282;2024-02-26T07:27:23;3.70;99.90
51825;DHT22;37879;52.986;6.282;2024-02-26T07:29:49;3.70;99.90
51825;DHT22;37879;52.986;6.282;2024-02-26T07:32:14;3.70;99.90
51825;DHT22;37879;52.986;6.282;2024-02-26T07:34:41;3.80;99.90
51825;DHT22;37879;52.986;6.282;2024-02-26T07:37:11;3.80;99.90
51825;DHT22;37879;52.986;6.282;2024-02-26T07:39:37;3.80;99.90
51825;DHT22;37879;52.986;6.282;2024-02-26T07:42:03;3.80;99.90
51825;DHT22;37879;52.986;6.282;2024-02-26T07:44:28;3.80;99.90
51825;DHT22;37879;52.986;6.282;2024-02-26T07:46:54;3.80;99.90
51825;DHT22;37879;52.986;6.282;2024-02-26T07:49:20;3.80;99.90
51825;DHT22;37879;52.986;6.282;2024-02-26T07:51:46;3.90;99.90
51825;DHT22;37879;52.986;6.282;2024-02-26T07:54:11;3.90;99.90
51825;DHT22;37879;52.986;6.282;2024-02-26T07:56:37;3.90;99.90
51825;DHT22;37879;52.986;6.282;2024-02-26T07:59:03;4.00;99.90
51825;DHT22;37879;52.986;6.282;2024-02-26T08:01:29;3.90;99.90
51825;DHT22;37879;52.986;6.282;2024-02-26T08:03:55;3.90;99.90
51825;DHT22;37879;52.986;6.282;2024-02-26T08:06:21;3.90;99.90
51825;DHT22;37879;52.986;6.282;2024-02-26T08:08:47;4.00;99.90
51825;DHT22;37879;52.986;6.282;2024-02-26T08:11:14;4.00;99.90
51825;DHT22;37879;52.986;6.282;2024-02-26T08:13:41;4.00;99.90
51825;DHT22;37879;52.986;6.282;2024-02-26T08:16:08;4.00;99.90
51825;DHT22;37879;52.986;6.282;2024-02-26T08:18:34;4.40;99.90
51825;DHT22;37879;52.986;6.282;2024-02-26T08:21:00;4.00;99.90
51825;DHT22;37879;52.986;6.282;2024-02-26T08:23:26;4.10;99.90
51825;DHT22;37879;52.986;6.282;2024-02-26T08:25:51;4.10;99.90
51825;DHT22;37879;52.986;6.282;2024-02-26T08:28:17;4.00;99.90
51825;DHT22;37879;52.986;6.282;2024-02-26T08:30:44;4.10;99.90
51825;DHT22;37879;52.986;6.282;2024-02-26T08:33:10;4.10;99.90
51825;DHT22;37879;52.986;6.282;2024-02-26T08:35:36;4.10;99.90
51825;DHT22;37879;52.986;6.282;2024-02-26T08:38:02;4.20;99.90
51825;DHT22;37879;52.986;6.282;2024-02-26T08:40:29;5.80;99.90
51825;DHT22;37879;52.986;6.282;2024-02-26T08:42:55;4.20;99.90
51825;DHT22;37879;52.986;6.282;2024-02-26T08:45:21;4.20;99.90
51825;DHT22;37879;52.986;6.282;2024-02-26T08:47:47;4.20;99.90
51825;DHT22;37879;52.986;6.282;2024-02-26T08:50:14;4.20;99.90
51825;DHT22;37879;52.986;6.282;2024-02-26T08:52:40;4.20;99.90
51825;DHT22;37879;52.986;6.282;2024-02-26T08:55:06;4.30;99.90
51825;DHT22;37879;52.986;6.282;2024-02-26T08:57:34;4.30;99.90
51825;DHT22;37879;52.986;6.282;2024-02-26T09:00:00;4.30;99.90
51825;DHT22;37879;52.986;6.282;2024-02-26T09:02:26;4.30;99.90
51825;DHT22;37879;52.986;6.282;2024-02-26T09:04:52;4.40;99.90
51825;DHT22;37879;52.986;6.282;2024-02-26T09:07:21;4.40;99.90
51825;DHT22;37879;52.986;6.282;2024-02-26T09:09:50;4.40;99.90
51825;DHT22;37879;52.986;6.282;2024-02-26T09:12:16;4.40;99.90
51825;DHT22;37879;52.986;6.282;2024-02-26T09:14:42;4.40;99.90
51825;DHT22;37879;52.986;6.282;2024-02-26T09:17:07;4.50;99.90
51825;DHT22;37879;52.986;6.282;2024-02-26T09:19:33;4.50;99.90
51825;DHT22;37879;52.986;6.282;2024-02-26T09:21:59;4.50;99.90
51825;DHT22;37879;52.986;6.282;2024-02-26T09:24:26;4.50;99.90
51825;DHT22;37879;52.986;6.282;2024-02-26T09:26:52;4.50;99.90
51825;DHT22;37879;52.986;6.282;2024-02-26T09:29:17;4.60;99.90
51825;DHT22;37879;52.986;6.282;2024-02-26T09:31:43;4.60;99.90
51825;DHT22;37879;52.986;6.282;2024-02-26T09:34:13;4.60;99.90
51825;DHT22;37879;52.986;6.282;2024-02-26T09:36:38;4.70;99.90
51825;DHT22;37879;52.986;6.282;2024-02-26T09:39:04;4.70;99.90
51825;DHT22;37879;52.986;6.282;2024-02-26T09:41:30;4.70;99.90
51825;DHT22;37879;52.986;6.282;2024-02-26T09:43:58;4.70;99.90
51825;DHT22;37879;52.986;6.282;2024-02-26T09:46:25;4.70;99.90
51825;DHT22;37879;52.986;6.282;2024-02-26T09:48:51;4.80;99.90
51825;DHT22;37879;52.986;6.282;2024-02-26T09:51:17;4.90;99.90
51825;DHT22;37879;52.986;6.282;2024-02-26T09:53:44;4.90;99.90
51825;DHT22;37879;52.986;6.282;2024-02-26T09:56:12;4.90;99.90
51825;DHT22;37879;52.986;6.282;2024-02-26T09:58:39;4.90;99.90
51825;DHT22;37879;52.986;6.282;2024-02-26T10:01:13;5.00;99.90
51825;DHT22;37879;52.986;6.282;2024-02-26T10:03:41;4.90;99.90
51825;DHT22;37879;52.986;6.282;2024-02-26T10:06:11;4.90;99.90
51825;DHT22;37879;52.986;6.282;2024-02-26T10:08:37;4.90;99.90
51825;DHT22;37879;52.986;6.282;2024-02-26T10:11:10;4.90;99.90
51825;DHT22;37879;52.986;6.282;2024-02-26T10:13:36;5.00;99.90
51825;DHT22;37879;52.986;6.282;2024-02-26T10:16:02;5.00;99.90
51825;DHT22;37879;52.986;6.282;2024-02-26T10:18:48;5.00;99.90
51825;DHT22;37879;52.986;6.282;2024-02-26T10:21:16;5.00;99.90
51825;DHT22;37879;52.986;6.282;2024-02-26T10:23:44;5.00;99.90
51825;DHT22;37879;52.986;6.282;2024-02-26T10:26:12;5.40;99.90
51825;DHT22;37879;52.986;6.282;2024-02-26T10:28:42;5.10;99.90
51825;DHT22;37879;52.986;6.282;2024-02-26T10:31:09;5.10;99.90
51825;DHT22;37879;52.986;6.282;2024-02-26T10:33:36;5.10;99.90
51825;DHT22;37879;52.986;6.282;2024-02-26T10:36:05;5.10;99.90
51825;DHT22;37879;52.986;6.282;2024-02-26T10:38:36;5.10;99.90
51825;DHT22;37879;52.986;6.282;2024-02-26T10:41:03;5.20;99.90
51825;DHT22;37879;52.986;6.282;2024-02-26T10:43:29;5.20;99.90
51825;DHT22;37879;52.986;6.282;2024-02-26T10:45:55;5.20;99.90
51825;DHT22;37879;52.986;6.282;2024-02-26T10:48:21;5.20;99.90
51825;DHT22;37879;52.986;6.282;2024-02-26T10:50:47;5.20;99.90
51825;DHT22;37879;52.986;6.282;2024-02-26T10:53:17;5.50;99.90
51825;DHT22;37879;52.986;6.282;2024-02-26T10:55:54;5.20;99.90
51825;DHT22;37879;52.986;6.282;2024-02-26T10:58:22;5.20;99.90
51825;DHT22;37879;52.986;6.282;2024-02-26T11:00:50;5.50;99.90
51825;DHT22;37879;52.986;6.282;2024-02-26T11:03:17;5.30;99.90
51825;DHT22;37879;52.986;6.282;2024-02-26T11:05:46;5.30;99.90
51825;DHT22;37879;52.986;6.282;2024-02-26T11:08:12;5.40;99.90
51825;DHT22;37879;52.986;6.282;2024-02-26T11:10:38;5.40;99.90
51825;DHT22;37879;52.986;6.282;2024-02-26T11:13:06;5.50;99.90
51825;DHT22;37879;52.986;6.282;2024-02-26T11:15:35;5.60;99.90
51825;DHT22;37879;52.986;6.282;2024-02-26T11:18:01;5.60;99.90
51825;DHT22;37879;52.986;6.282;2024-02-26T11:20:31;5.60;99.90
51825;DHT22;37879;52.986;6.282;2024-02-26T11:22:57;5.60;99.90
51825;DHT22;37879;52.986;6.282;2024-02-26T11:25:23;5.60;99.90
51825;DHT22;37879;52.986;6.282;2024-02-26T11:27:54;5.60;99.90
51825;DHT22;37879;52.986;6.282;2024-02-26T11:30:24;5.70;99.90
51825;DHT22;37879;52.986;6.282;2024-02-26T11:32:52;5.70;99.90
51825;DHT22;37879;52.986;6.282;2024-02-26T11:35:19;5.80;99.90
51825;DHT22;37879;52.986;6.282;2024-02-26T11:37:55;5.80;99.90
51825;DHT22;37879;52.986;6.282;2024-02-26T11:40:25;5.80;99.90
51825;DHT22;37879;52.986;6.282;2024-02-26T11:42:51;5.80;99.90
51825;DHT22;37879;52.986;6.282;2024-02-26T11:48:15;5.80;99.90
51825;DHT22;37879;52.986;6.282;2024-02-26T11:50:46;5.70;99.90
51825;DHT22;37879;52.986;6.282;2024-02-26T11:53:26;5.80;99.90
51825;DHT22;37879;52.986;6.282;2024-02-26T11:58:44;5.80;99.90
51825;DHT22;37879;52.986;6.282;2024-02-26T12:04:22;5.80;99.90
51825;DHT22;37879;52.986;6.282;2024-02-26T12:06:54;5.80;99.90
51825;DHT22;37879;52.986;6.282;2024-02-26T12:12:00;5.80;99.90
51825;DHT22;37879;52.986;6.282;2024-02-26T12:14:27;5.90;99.90
51825;DHT22;37879;52.986;6.282;2024-02-26T12:16:53;5.90;99.90
51825;DHT22;37879;52.986;6.282;2024-02-26T12:19:18;5.90;99.90
51825;DHT22;37879;52.986;6.282;2024-02-26T12:21:44;5.90;99.90
51825;DHT22;37879;52.986;6.282;2024-02-26T12:24:18;6.00;99.90
51825;DHT22;37879;52.986;6.282;2024-02-26T12:26:44;6.00;99.90
51825;DHT22;37879;52.986;6.282;2024-02-26T12:29:10;6.00;99.90
51825;DHT22;37879;52.986;6.282;2024-02-26T12:31:36;6.00;99.90
51825;DHT22;37879;52.986;6.282;2024-02-26T12:34:04;6.00;99.90
51825;DHT22;37879;52.986;6.282;2024-02-26T12:36:30;6.00;99.90
51825;DHT22;37879;52.986;6.282;2024-02-26T12:38:55;6.00;99.90
51825;DHT22;37879;52.986;6.282;2024-02-26T12:41:22;6.00;99.90
51825;DHT22;37879;52.986;6.282;2024-02-26T12:43:48;6.00;99.90
51825;DHT22;37879;52.986;6.282;2024-02-26T12:46:14;6.00;99.90
51825;DHT22;37879;52.986;6.282;2024-02-26T12:48:44;6.00;99.90
51825;DHT22;37879;52.986;6.282;2024-02-26T12:51:14;5.90;99.90
51825;DHT22;37879;52.986;6.282;2024-02-26T12:53:41;5.80;99.90
51825;DHT22;37879;52.986;6.282;2024-02-26T12:56:09;5.90;99.90
51825;DHT22;37879;52.986;6.282;2024-02-26T12:58:36;5.90;99.90
51825;DHT22;37879;52.986;6.282;2024-02-26T13:01:04;5.90;99.90
51825;DHT22;37879;52.986;6.282;2024-02-26T13:03:31;5.80;99.90
51825;DHT22;37879;52.986;6.282;2024-02-26T13:05:57;5.80;99.90
51825;DHT22;37879;52.986;6.282;2024-02-26T13:08:23;5.90;99.90
51825;DHT22;37879;52.986;6.282;2024-02-26T13:10:49;5.90;99.90
51825;DHT22;37879;52.986;6.282;2024-02-26T13:13:17;5.90;99.90
51825;DHT22;37879;52.986;6.282;2024-02-26T13:15:44;5.90;99.90
51825;DHT22;37879;52.986;6.282;2024-02-26T13:18:15;5.80;99.90
51825;DHT22;37879;52.986;6.282;2024-02-26T13:20:42;5.80;99.90
51825;DHT22;37879;52.986;6.282;2024-02-26T13:23:11;5.70;99.90
51825;DHT22;37879;52.986;6.282;2024-02-26T13:25:37;5.60;99.90
51825;DHT22;37879;52.986;6.282;2024-02-26T13:28:16;5.60;99.90
51825;DHT22;37879;52.986;6.282;2024-02-26T13:30:49;5.60;99.90
51825;DHT22;37879;52.986;6.282;2024-02-26T13:33:15;5.60;99.90
51825;DHT22;37879;52.986;6.282;2024-02-26T13:35:41;5.50;99.90
51825;DHT22;37879;52.986;6.282;2024-02-26T13:38:07;5.50;99.90
51825;DHT22;37879;52.986;6.282;2024-02-26T13:40:33;5.50;99.90
51825;DHT22;37879;52.986;6.282;2024-02-26T13:43:02;5.50;99.90
51825;DHT22;37879;52.986;6.282;2024-02-26T13:45:28;5.50;99.90
51825;DHT22;37879;52.986;6.282;2024-02-26T13:47:54;5.50;99.90
51825;DHT22;37879;52.986;6.282;2024-02-26T13:50:26;5.50;99.90
51825;DHT22;37879;52.986;6.282;2024-02-26T13:52:52;5.50;99.90
51825;DHT22;37879;52.986;6.282;2024-02-26T13:55:19;5.50;99.90
51825;DHT22;37879;52.986;6.282;2024-02-26T13:57:46;5.60;99.90
51825;DHT22;37879;52.986;6.282;2024-02-26T14:00:12;5.60;99.90
51825;DHT22;37879;52.986;6.282;2024-02-26T14:02:38;5.60;99.90
51825;DHT22;37879;52.986;6.282;2024-02-26T14:05:04;5.50;99.90
51825;DHT22;37879;52.986;6.282;2024-02-26T14:07:30;5.50;99.90
51825;DHT22;37879;52.986;6.282;2024-02-26T14:09:58;5.50;99.90
51825;DHT22;37879;52.986;6.282;2024-02-26T14:12:24;5.50;99.90
51825;DHT22;37879;52.986;6.282;2024-02-26T14:14:50;5.40;99.90
51825;DHT22;37879;52.986;6.282;2024-02-26T14:17:15;5.40;99.90
51825;DHT22;37879;52.986;6.282;2024-02-26T14:19:44;5.50;99.90
51825;DHT22;37879;52.986;6.282;2024-02-26T14:22:14;5.40;99.90
51825;DHT22;37879;52.986;6.282;2024-02-26T14:24:42;5.40;99.90
51825;DHT22;37879;52.986;6.282;2024-02-26T14:27:10;5.50;99.90
51825;DHT22;37879;52.986;6.282;2024-02-26T14:29:36;5.40;99.90
51825;DHT22;37879;52.986;6.282;2024-02-26T14:32:03;5.40;99.90
51825;DHT22;37879;52.986;6.282;2024-02-26T14:34:29;5.40;99.90
51825;DHT22;37879;52.986;6.282;2024-02-26T14:36:55;5.40;99.90
51825;DHT22;37879;52.986;6.282;2024-02-26T14:39:21;5.40;99.90
51825;DHT22;37879;52.986;6.282;2024-02-26T14:41:47;5.40;99.90
51825;DHT22;37879;52.986;6.282;2024-02-26T14:44:12;5.30;99.90
51825;DHT22;37879;52.986;6.282;2024-02-26T14:46:38;5.40;99.90
51825;DHT22;37879;52.986;6.282;2024-02-26T14:49:04;5.40;99.90
51825;DHT22;37879;52.986;6.282;2024-02-26T14:51:30;5.40;99.90
51825;DHT22;37879;52.986;6.282;2024-02-26T14:53:56;5.40;99.90
51825;DHT22;37879;52.986;6.282;2024-02-26T14:56:24;5.30;99.90
51825;DHT22;37879;52.986;6.282;2024-02-26T14:58:50;5.30;99.90
51825;DHT22;37879;52.986;6.282;2024-02-26T15:01:16;5.30;99.90
51825;DHT22;37879;52.986;6.282;2024-02-26T15:03:41;5.30;99.90
51825;DHT22;37879;52.986;6.282;2024-02-26T15:06:07;5.30;99.90
51825;DHT22;37879;52.986;6.282;2024-02-26T15:08:33;5.30;99.90
51825;DHT22;37879;52.986;6.282;2024-02-26T15:11:00;4.40;99.90
51825;DHT22;37879;52.986;6.282;2024-02-26T15:13:26;5.30;99.90
51825;DHT22;37879;52.986;6.282;2024-02-26T15:15:52;5.20;99.90
51825;DHT22;37879;52.986;6.282;2024-02-26T15:18:18;5.20;99.90
51825;DHT22;37879;52.986;6.282;2024-02-26T15:20:44;5.20;99.90
51825;DHT22;37879;52.986;6.282;2024-02-26T15:23:11;5.20;99.90
51825;DHT22;37879;52.986;6.282;2024-02-26T15:25:37;5.10;99.90
51825;DHT22;37879;52.986;6.282;2024-02-26T15:28:03;5.10;99.90
51825;DHT22;37879;52.986;6.282;2024-02-26T15:30:29;5.10;99.90
51825;DHT22;37879;52.986;6.282;2024-02-26T15:32:55;5.10;99.90
51825;DHT22;37879;52.986;6.282;2024-02-26T15:35:22;5.10;99.90
51825;DHT22;37879;52.986;6.282;2024-02-26T15:37:47;5.10;99.90
51825;DHT22;37879;52.986;6.282;2024-02-26T15:40:13;5.20;99.90
51825;DHT22;37879;52.986;6.282;2024-02-26T15:42:39;5.10;99.90
51825;DHT22;37879;52.986;6.282;2024-02-26T15:45:05;5.00;99.90
51825;DHT22;37879;52.986;6.282;2024-02-26T15:47:31;5.10;99.90
51825;DHT22;37879;52.986;6.282;2024-02-26T15:49:57;5.10;99.90
51825;DHT22;37879;52.986;6.282;2024-02-26T15:52:24;5.10;99.90
51825;DHT22;37879;52.986;6.282;2024-02-26T15:54:50;5.10;99.90